Time;durP1;ratioP1;P1;durP2;ratioP2;P2;SDS_P1;SDS_P2;PMS_P1;PMS_P2;Temp;Humidity;BMP_temperature;BMP_pressure;BME280_temperature;BME280_humidity;BME280_pressure;Samples;Min_cycle;Max_cycle;Signal;HPM_P1;HPM_P2
2022/02/10 00:13:35;;;;;;;13.35;6.25;;;8.20;99.90;;;9.07;100.00;101063.31;5034202;28;20492;-76
2022/02/10 00:18:47;;;;;;;15.05;7.18;;;8.10;99.90;;;8.97;100.00;101051.41;5033677;28;20017;-74
2022/02/10 00:21:22;;;;;;;15.05;6.57;;;8.10;99.90;;;8.90;100.00;101048.31;5032591;28;20034;-75
2022/02/10 00:24:07;;;;;;;13.07;5.95;;;8.10;99.90;;;8.91;100.00;101046.34;5033684;28;20029;-76
2022/02/10 00:34:51;;;;;;;16.83;6.80;;;8.00;99.90;;;8.80;100.00;101034.78;5034307;28;20032;-75
2022/02/10 00:37:23;;;;;;;13.60;6.05;;;8.00;99.90;;;8.76;100.00;101030.25;5033684;28;20033;-78
2022/02/10 00:40:08;;;;;;;14.27;6.25;;;7.90;99.90;;;8.74;100.00;101038.91;5016321;28;20086;-77
2022/02/10 00:42:34;;;;;;;17.65;6.97;;;7.90;99.90;;;8.76;100.00;101024.66;5034064;28;20032;-76
2022/02/10 00:44:59;;;;;;;15.85;6.80;;;7.90;99.90;;;8.80;100.00;101022.81;5034385;28;20021;-75
2022/02/10 00:47:28;;;;;;;11.07;6.07;;;7.90;99.90;;;8.78;100.00;101023.19;5016549;28;20028;-74
2022/02/10 00:49:57;;;;;;;12.93;6.57;;;7.90;99.90;;;8.73;100.00;101026.13;5057257;28;20063;-75
2022/02/10 00:52:23;;;;;;;11.25;6.05;;;7.90;99.90;;;8.76;100.00;101028.28;5074388;28;20028;-75
2022/02/10 00:54:48;;;;;;;16.27;6.57;;;7.90;99.90;;;8.71;100.00;101034.03;5072938;28;20031;-77
2022/02/10 00:57:20;;;;;;;13.18;6.22;;;7.80;99.90;;;8.66;100.00;101025.88;5074267;28;20151;-77
2022/02/10 01:00:08;;;;;;;13.00;6.47;;;7.80;99.90;;;8.54;100.00;101028.53;5074179;28;20024;-75
2022/02/10 01:10:42;;;;;;;15.63;7.35;;;7.50;99.90;;;8.19;100.00;101005.59;5074713;28;20029;-77
2022/02/10 01:29:35;;;;;;;12.45;7.47;;;7.00;99.90;;;7.70;100.00;100995.94;5076899;28;20411;-76
2022/02/10 01:32:07;;;;;;;14.77;7.70;;;6.90;99.90;;;7.65;100.00;100989.72;5075540;28;20059;-77
2022/02/10 01:34:39;;;;;;;11.88;7.20;;;6.90;99.90;;;7.64;100.00;100994.47;5062456;28;20029;-74
2022/02/10 01:37:04;;;;;;;17.90;7.60;;;6.80;99.90;;;7.59;100.00;100985.47;5079902;28;20047;-79
2022/02/10 01:39:40;;;;;;;12.93;7.03;;;6.80;99.90;;;7.55;100.00;100987.28;5079505;28;20052;-77
2022/02/10 02:04:20;;;;;;;15.57;8.75;;;6.10;99.90;;;6.88;100.00;100926.72;5058933;28;20070;-77
2022/02/10 02:06:49;;;;;;;24.15;11.27;;;6.10;99.90;;;6.86;100.00;100918.72;5057315;28;20111;-77
2022/02/10 02:09:18;;;;;;;20.83;10.65;;;6.20;99.90;;;6.91;100.00;100920.50;5040334;28;20025;-77
2022/02/10 02:11:52;;;;;;;18.00;9.50;;;6.20;99.90;;;6.98;100.00;100914.47;5039648;28;20036;-77
2022/02/10 02:14:24;;;;;;;15.70;9.20;;;6.30;99.90;;;7.00;100.00;100906.66;5057940;28;20035;-79
2022/02/10 02:17:04;;;;;;;21.67;10.00;;;6.30;99.90;;;6.91;100.00;100901.06;5056867;28;20032;-80
2022/02/10 02:19:34;;;;;;;19.65;9.52;;;6.30;99.90;;;6.97;100.00;100905.31;5058417;28;20029;-75
2022/02/10 02:22:09;;;;;;;23.73;10.40;;;6.30;99.90;;;7.03;100.00;100905.97;5059405;28;20029;-77
2022/02/10 02:24:36;;;;;;;19.65;10.95;;;6.30;99.90;;;6.99;100.00;100893.88;5040443;28;20056;-78
2022/02/10 02:27:05;;;;;;;18.27;9.82;;;6.20;99.90;;;6.99;100.00;100894.72;5059399;28;20032;-77
2022/02/10 02:29:43;;;;;;;19.85;9.05;;;6.20;99.90;;;6.93;100.00;100890.47;5057485;28;20036;-77
2022/02/10 02:32:16;;;;;;;20.08;9.93;;;6.10;99.90;;;6.86;100.00;100890.16;5056853;28;20025;-76
2022/02/10 03:07:12;;;;;;;24.58;10.60;;;6.00;99.90;;;6.77;100.00;100858.81;5076195;28;20082;-77
2022/02/10 03:09:43;;;;;;;22.35;10.00;;;6.10;99.90;;;6.84;100.00;100859.91;5059386;28;20633;-77
2022/02/10 03:12:11;;;;;;;19.92;10.38;;;6.10;99.90;;;6.92;100.00;100854.69;5058067;28;20120;-77
2022/02/10 03:14:45;;;;;;;20.15;9.45;;;6.20;99.90;;;7.02;100.00;100848.81;5076003;28;20020;-79
2022/02/10 03:22:40;;;;;;;18.50;9.75;;;6.50;99.90;;;7.25;100.00;100845.50;5076459;28;20120;-78
2022/02/10 04:00:03;;;;;;;17.38;9.18;;;6.50;99.90;;;7.26;100.00;100837.94;5077063;28;20097;-78
2022/02/10 04:04:24;;;;;;;15.35;8.02;;;6.20;99.90;;;6.89;100.00;100772.88;5056854;28;20032;-77
2022/02/10 04:06:55;;;;;;;17.52;8.23;;;6.20;99.90;;;6.79;100.00;100778.78;5058009;28;20381;-76
2022/02/10 04:18:00;;;;;;;16.33;8.93;;;5.90;99.90;;;6.66;100.00;100774.22;5070032;28;20029;-76
2022/02/10 04:25:54;;;;;;;18.85;8.52;;;5.60;99.90;;;6.34;100.00;100787.47;5055410;28;20029;-75
2022/02/10 05:31:20;;;;;;;18.40;11.13;;;5.90;99.90;;;6.71;100.00;100749.09;5080294;28;20028;-76
2022/02/10 05:35:49;;;;;;;24.23;13.10;;;5.90;99.90;;;6.60;100.00;100751.38;5079261;28;20039;-77
2022/02/10 05:38:27;;;;;;;28.17;12.63;;;5.90;99.90;;;6.70;100.00;100756.59;5061921;28;20033;-75
2022/02/10 05:41:45;;;;;;;22.98;11.80;;;6.00;99.90;;;6.77;100.00;100758.88;5080913;28;20034;-76
2022/02/10 05:49:47;;;;;;;19.33;10.85;;;6.10;99.90;;;6.94;100.00;100769.09;5079782;28;20052;-76
2022/02/10 06:46:52;;;;;;;16.25;7.93;;;6.40;99.90;;;7.16;100.00;100757.78;5080181;28;20422;-76
2022/02/10 06:54:55;;;;;;;14.43;6.82;;;6.40;99.90;;;7.29;100.00;100745.59;5070756;28;20013;-74
2022/02/10 07:03:50;;;;;;;15.98;7.10;;;6.50;99.90;;;7.32;100.00;100751.31;5059562;28;20102;-76
2022/02/10 07:06:25;;;;;;;15.43;7.47;;;6.50;99.90;;;7.37;100.00;100753.91;5058727;28;20040;-76
2022/02/10 07:11:39;;;;;;;15.13;7.40;;;6.60;99.90;;;7.39;100.00;100750.78;5061787;28;20469;-78
2022/02/10 07:58:26;;;;;;;18.08;7.63;;;6.70;99.90;;;7.65;100.00;100800.69;5081606;28;20553;-76
2022/02/10 08:58:22;;;;;;;20.48;8.98;;;7.20;99.90;;;8.16;100.00;100821.81;5059906;28;20029;-77
2022/02/10 09:01:11;;;;;;;13.57;8.30;;;7.30;99.90;;;8.29;100.00;100827.16;5063567;28;20039;-76
2022/02/10 09:19:41;;;;;;;18.40;9.57;;;7.70;99.90;;;8.61;100.00;100830.31;5037017;28;1102797;-76
2022/02/10 10:19:07;;;;;;;15.55;10.13;;;7.70;99.90;;;8.74;100.00;100876.56;5063879;28;20054;-78
2022/02/10 10:22:02;;;;;;;20.60;10.02;;;7.80;99.90;;;8.77;100.00;100870.31;5068772;28;20025;-79
2022/02/10 10:50:03;;;;;;;21.20;12.40;;;7.70;99.90;;;8.31;100.00;100886.09;5014635;28;20037;-76
2022/02/10 11:03:39;;;;;;;21.40;14.07;;;7.40;99.90;;;8.11;100.00;100877.66;5056161;28;20036;-76
2022/02/10 11:38:22;;;;;;;17.92;13.32;;;7.00;99.90;;;7.96;100.00;100899.31;5054487;28;20462;-76
2022/02/10 11:44:02;;;;;;;19.00;13.25;;;7.00;99.90;;;7.95;100.00;100894.94;5055004;28;20029;-77
2022/02/10 13:29:50;;;;;;;15.02;9.18;;;7.40;99.90;;;8.41;100.00;100909.91;5074674;28;20039;-77
2022/02/10 13:35:25;;;;;;;12.25;7.28;;;7.30;99.90;;;8.43;100.00;100900.06;5078185;28;20042;-77
2022/02/10 14:14:09;;;;;;;11.35;7.57;;;8.30;99.90;;;9.43;100.00;100910.19;4974623;28;20394;-77
2022/02/10 14:16:55;;;;;;;13.35;8.30;;;8.30;99.90;;;9.36;100.00;100907.97;4975021;28;20449;-77
2022/02/10 14:19:46;;;;;;;13.85;8.63;;;8.30;99.90;;;9.07;100.00;100896.94;5013210;28;20136;-77
2022/02/10 14:27:31;;;;;;;10.57;6.80;;;8.10;99.90;;;9.10;100.00;100920.50;5056499;28;20065;-75
2022/02/10 14:29:57;;;;;;;13.32;8.07;;;8.10;99.90;;;9.05;100.00;100913.19;5038309;28;20065;-76
2022/02/10 14:32:28;;;;;;;9.98;6.40;;;8.10;99.90;;;8.97;100.00;100911.28;5055897;28;20473;-75
2022/02/10 14:34:59;;;;;;;10.93;6.22;;;8.00;99.90;;;9.02;100.00;100906.31;5056792;28;20032;-75
2022/02/10 15:14:53;;;;;;;9.45;5.65;;;7.50;99.90;;;8.48;100.00;100929.66;5078443;28;20090;-76
2022/02/10 15:46:33;;;;;;;14.50;6.60;;;7.30;99.90;;;8.16;100.00;100944.22;5077613;28;20085;-74
2022/02/10 16:10:59;;;;;;;7.45;3.92;;;6.90;99.90;;;7.74;100.00;100943.25;5056057;28;20419;-76
2022/02/10 16:16:51;;;;;;;10.75;4.30;;;6.80;99.90;;;7.65;100.00;100945.25;5056712;28;20083;-76
2022/02/10 16:19:06;;;;;;;8.27;3.83;;;6.70;99.90;;;7.55;100.00;100949.19;5055270;28;20135;-76
2022/02/10 16:21:44;;;;;;;7.68;3.38;;;6.60;99.90;;;7.53;100.00;100948.72;5057092;28;20035;-76
2022/02/10 16:24:29;;;;;;;7.57;3.50;;;6.60;99.90;;;7.45;100.00;100938.41;5056439;28;20033;-76
2022/02/10 16:27:11;;;;;;;9.70;3.47;;;6.50;99.90;;;7.40;100.00;100950.53;5056497;28;20036;-77
2022/02/10 16:29:38;;;;;;;11.38;3.95;;;6.50;99.90;;;7.35;100.00;100941.56;5056120;28;20025;-77
2022/02/10 16:32:05;;;;;;;7.00;3.25;;;6.40;99.90;;;7.31;100.00;100944.19;5056217;28;20028;-76
2022/02/10 16:34:31;;;;;;;9.07;4.45;;;6.40;99.90;;;7.27;100.00;100947.94;5057493;28;20077;-79
2022/02/10 16:36:59;;;;;;;8.27;3.67;;;6.40;99.90;;;7.22;100.00;100940.59;5062220;28;20480;-78
2022/02/10 16:39:25;;;;;;;8.82;3.10;;;6.30;99.90;;;7.19;100.00;100941.25;5043437;28;20029;-77
2022/02/10 16:41:51;;;;;;;8.20;3.40;;;6.30;99.90;;;7.21;100.00;100940.91;5058671;28;20055;-78
2022/02/10 16:44:18;;;;;;;7.00;3.63;;;6.30;99.90;;;7.18;100.00;100944.34;5037728;28;20116;-77
2022/02/10 16:46:50;;;;;;;6.75;3.42;;;6.30;99.90;;;7.11;100.00;100944.84;5054057;28;20090;-78
2022/02/10 16:49:22;;;;;;;9.23;3.47;;;6.30;99.90;;;7.08;100.00;100942.72;5061373;28;20035;-75
2022/02/10 16:51:48;;;;;;;7.63;3.80;;;6.20;99.90;;;7.04;100.00;100932.59;5074425;28;20033;-75
2022/02/10 16:54:30;;;;;;;7.30;3.85;;;6.20;99.90;;;7.01;100.00;100938.81;5059586;28;20464;-76
2022/02/10 16:57:08;;;;;;;11.07;4.75;;;6.20;99.90;;;6.99;100.00;100932.78;5078534;28;20491;-78
2022/02/10 16:59:53;;;;;;;10.90;5.05;;;6.10;99.90;;;6.95;100.00;100923.44;5077429;28;20024;-78
2022/02/10 17:03:31;;;;;;;8.25;4.05;;;6.10;99.90;;;6.93;100.00;100940.47;5076765;28;20028;-77
2022/02/10 17:29:09;;;;;;;13.73;6.63;;;5.90;99.90;;;6.72;100.00;100920.84;5074941;28;20029;-76
2022/02/10 17:31:45;;;;;;;19.15;7.82;;;5.90;99.90;;;6.71;100.00;100929.50;5075643;28;20035;-79
2022/02/10 17:42:26;;;;;;;21.13;9.38;;;5.80;99.90;;;6.67;100.00;100934.88;5075495;28;20040;-76
2022/02/10 17:53:02;;;;;;;24.13;10.73;;;5.80;99.90;;;6.71;100.00;100946.16;5055447;28;20603;-79
2022/02/10 17:55:30;;;;;;;31.92;13.65;;;5.80;99.90;;;6.67;100.00;100942.41;5038798;28;20590;-77
2022/02/10 17:57:58;;;;;;;33.05;14.55;;;5.80;99.90;;;6.76;100.00;100946.81;5042675;28;20032;-77
2022/02/10 18:00:25;;;;;;;29.25;13.88;;;5.90;99.90;;;6.77;100.00;100945.69;5037956;28;20029;-75
2022/02/10 18:02:59;;;;;;;28.05;13.25;;;5.90;99.90;;;6.76;100.00;100946.81;5041160;28;20025;-75
2022/02/10 18:08:15;;;;;;;20.13;10.88;;;6.00;99.90;;;6.83;100.00;100955.47;5059696;28;20063;-78
2022/02/10 18:13:46;;;;;;;25.00;11.75;;;6.00;99.90;;;6.82;100.00;100953.00;5054582;28;20095;-77
2022/02/10 18:16:30;;;;;;;20.70;9.38;;;6.00;99.90;;;6.90;100.00;100958.56;5057343;28;20017;-76
2022/02/10 18:19:14;;;;;;;16.30;9.45;;;6.00;99.90;;;6.85;100.00;100957.91;5057399;28;20025;-78
2022/02/10 18:37:12;;;;;;;15.48;5.50;;;5.90;99.90;;;6.60;100.00;100956.75;5059780;28;20043;-75
2022/02/10 19:10:43;;;;;;;8.55;4.35;;;5.10;99.90;;;5.95;100.00;100980.84;5040933;28;20211;-77
2022/02/10 19:13:16;;;;;;;7.15;3.97;;;5.10;99.90;;;5.96;100.00;100990.81;5039418;28;20044;-77
2022/02/10 19:15:42;;;;;;;11.38;5.10;;;5.10;99.90;;;5.91;100.00;100980.66;5041776;28;20404;-77
2022/02/10 19:18:10;;;;;;;11.90;6.45;;;5.10;99.90;;;5.93;100.00;100983.97;5022027;28;20033;-75
2022/02/10 19:20:40;;;;;;;6.28;4.68;;;5.10;99.90;;;5.86;100.00;100982.78;5039186;28;20032;-77
2022/02/10 19:23:08;;;;;;;9.95;5.43;;;5.10;99.90;;;5.89;100.00;100994.03;5023451;28;20030;-74
2022/02/10 19:25:38;;;;;;;10.68;6.40;;;5.10;99.90;;;5.90;100.00;100992.09;5038340;28;20029;-77
2022/02/10 19:28:09;;;;;;;12.07;6.00;;;5.10;99.90;;;5.98;100.00;100989.34;5037980;28;20053;-77
2022/02/10 19:30:39;;;;;;;8.85;6.00;;;5.10;99.90;;;6.07;100.00;101003.28;5037446;28;20032;-78
2022/02/10 19:33:12;;;;;;;11.20;7.20;;;5.10;99.90;;;6.03;100.00;101014.19;5037485;28;20030;-77
2022/02/10 19:35:45;;;;;;;10.82;6.53;;;5.10;99.90;;;5.94;100.00;101015.28;5038645;28;20052;-77
2022/02/10 19:38:20;;;;;;;14.05;6.80;;;5.10;99.90;;;6.08;100.00;101021.53;5038264;28;20029;-77
2022/02/10 19:40:52;;;;;;;11.75;7.55;;;5.10;99.90;;;6.07;100.00;101017.94;5020475;28;20097;-79
2022/02/10 19:43:21;;;;;;;10.27;6.35;;;5.20;99.90;;;6.01;100.00;101019.22;5038350;28;20033;-76
2022/02/10 19:45:49;;;;;;;7.45;5.25;;;5.10;99.90;;;5.99;100.00;101023.44;5043774;28;20033;-77
2022/02/10 19:48:17;;;;;;;10.18;5.15;;;5.10;99.90;;;5.92;100.00;101018.34;5039377;28;20025;-78
2022/02/10 19:50:43;;;;;;;10.18;4.18;;;5.10;99.90;;;5.95;100.00;101027.97;5084552;28;20017;-78
2022/02/10 19:53:17;;;;;;;7.32;4.68;;;5.10;99.90;;;5.91;100.00;101016.72;5060617;28;20028;-77
2022/02/10 19:55:51;;;;;;;8.32;3.60;;;5.00;99.90;;;5.84;100.00;101024.66;5078392;28;20017;-76
2022/02/10 19:58:20;;;;;;;5.63;3.88;;;5.00;99.90;;;5.82;100.00;101016.63;5076154;28;20143;-76
2022/02/10 20:00:48;;;;;;;13.85;4.78;;;4.90;99.90;;;5.73;100.00;101017.72;5079528;28;20027;-77
2022/02/10 20:03:22;;;;;;;3.78;2.75;;;4.90;99.90;;;5.69;100.00;101027.78;5075056;28;20098;-77
2022/02/10 20:05:51;;;;;;;2.83;2.00;;;4.90;99.90;;;5.58;100.00;101021.72;5077306;28;20024;-77
2022/02/10 20:08:24;;;;;;;4.93;2.45;;;4.80;99.90;;;5.50;100.00;101016.09;5076470;28;20036;-79
2022/02/10 20:10:56;;;;;;;6.65;1.77;;;4.70;99.90;;;5.47;100.00;101020.31;5079658;28;20502;-76
2022/02/10 20:13:30;;;;;;;4.35;1.80;;;4.70;99.90;;;5.30;100.00;101009.94;5079104;28;20032;-77
2022/02/10 20:16:02;;;;;;;4.63;1.92;;;4.60;99.90;;;5.36;100.00;101024.50;5078140;28;20028;-76
2022/02/10 20:18:35;;;;;;;5.13;1.90;;;4.60;99.90;;;5.41;100.00;101020.75;5081270;28;20032;-78
2022/02/10 20:21:01;;;;;;;4.50;1.77;;;4.60;99.90;;;5.30;100.00;101022.94;5059496;28;20040;-79
2022/02/10 20:23:30;;;;;;;4.32;1.80;;;4.60;99.90;;;5.30;100.00;101028.50;5078757;28;20086;-78
2022/02/10 20:25:56;;;;;;;5.07;1.92;;;4.50;99.90;;;5.35;100.00;101033.94;5077157;28;20398;-76
2022/02/10 20:28:22;;;;;;;5.55;1.88;;;4.50;99.90;;;5.25;100.00;101032.22;5074943;28;20021;-77
2022/02/10 20:30:49;;;;;;;5.85;2.45;;;4.50;99.90;;;5.24;100.00;101025.03;5074927;28;20025;-78
2022/02/10 20:33:28;;;;;;;7.55;2.53;;;4.50;99.90;;;5.29;100.00;101029.66;5074298;28;20037;-79
2022/02/10 20:35:58;;;;;;;6.75;2.67;;;4.50;99.90;;;5.33;100.00;101044.47;5077408;28;20031;-77
2022/02/10 20:38:25;;;;;;;7.18;2.92;;;4.50;99.90;;;5.32;100.00;101046.47;5076096;28;20027;-75
2022/02/10 20:40:58;;;;;;;6.43;2.97;;;4.50;99.90;;;5.25;100.00;101045.25;5073198;28;20025;-77
2022/02/10 20:43:25;;;;;;;8.75;3.30;;;4.40;99.90;;;5.19;100.00;101044.56;5075464;28;20048;-77
2022/02/10 20:45:58;;;;;;;5.10;3.03;;;4.40;99.90;;;5.17;100.00;101044.03;5057438;28;20030;-79
2022/02/10 20:48:28;;;;;;;5.47;2.95;;;4.40;99.90;;;5.25;100.00;101045.25;5055763;28;20052;-79
2022/02/10 20:50:57;;;;;;;6.93;3.97;;;4.40;99.90;;;5.25;100.00;101042.47;5054592;28;20029;-77
2022/02/10 20:53:30;;;;;;;11.32;3.47;;;4.40;99.90;;;5.24;100.00;101044.41;5054355;28;20088;-78
2022/02/10 20:56:02;;;;;;;6.05;3.63;;;4.40;99.90;;;5.16;100.00;101041.59;5054142;28;20480;-77
2022/02/10 20:58:32;;;;;;;7.35;4.13;;;4.30;99.90;;;5.09;100.00;101053.09;5053867;28;20033;-77
2022/02/10 21:01:01;;;;;;;10.52;3.83;;;4.30;99.90;;;5.06;100.00;101052.88;5035806;28;20029;-78
2022/02/10 21:03:30;;;;;;;7.32;2.97;;;4.20;99.90;;;5.03;100.00;101056.28;5053668;28;20369;-76
2022/02/10 21:11:09;;;;;;;6.35;3.08;;;4.10;99.90;;;4.90;100.00;101040.53;5054927;28;20035;-77
2022/02/10 21:13:36;;;;;;;6.13;3.15;;;4.10;99.90;;;4.82;100.00;101042.06;5055172;28;20100;-80
2022/02/10 21:16:04;;;;;;;6.50;3.50;;;4.10;99.90;;;4.74;100.00;101040.03;5037282;28;20052;-79
2022/02/10 21:18:34;;;;;;;6.63;3.85;;;4.00;99.90;;;4.76;100.00;101049.66;5055171;28;20120;-80
2022/02/10 21:21:06;;;;;;;6.25;4.40;;;4.00;99.90;;;4.81;100.00;101047.94;5038000;28;20515;-77
2022/02/10 21:23:38;;;;;;;6.45;3.90;;;4.00;99.90;;;4.76;100.00;101049.66;5059677;28;20412;-80
2022/02/10 21:26:06;;;;;;;8.52;4.47;;;4.00;99.90;;;4.74;100.00;101042.81;5071019;28;20021;-77
2022/02/10 21:28:36;;;;;;;8.80;4.43;;;4.00;99.90;;;4.71;100.00;101060.84;5069297;28;20112;-77
2022/02/10 21:31:05;;;;;;;7.57;3.92;;;4.00;99.90;;;4.76;100.00;101055.19;5061042;28;20028;-79
2022/02/10 21:36:47;;;;;;;9.38;3.65;;;4.00;99.90;;;4.71;100.00;101052.56;5055875;28;20032;-78
2022/02/10 21:39:06;;;;;;;5.75;3.05;;;3.90;99.90;;;4.63;100.00;101052.44;5053662;28;20437;-78
2022/02/10 22:01:24;;;;;;;6.85;2.95;;;3.70;99.90;;;4.46;100.00;101064.16;5077852;28;20050;-78
2022/02/10 22:03:46;;;;;;;5.70;3.00;;;3.70;99.90;;;4.47;100.00;101068.53;5077424;28;20062;-78
2022/02/10 22:16:39;;;;;;;8.02;3.72;;;3.60;99.90;;;4.38;100.00;101080.63;5077477;28;20146;-77
2022/02/10 22:19:15;;;;;;;5.68;3.25;;;3.60;99.90;;;4.40;100.00;101081.16;5091263;22;20111;-77
2022/02/10 22:21:51;;;;;;;7.03;3.40;;;3.60;99.90;;;4.38;100.00;101086.97;5037742;28;20491;-80
2022/02/10 22:24:23;;;;;;;7.60;3.50;;;3.60;99.90;;;4.35;100.00;101086.75;5037882;28;20029;-79
2022/02/10 22:26:52;;;;;;;9.70;4.40;;;3.60;99.90;;;4.15;100.00;101080.50;5037977;28;20366;-77
2022/02/10 22:29:35;;;;;;;9.02;4.80;;;3.50;99.90;;;4.17;100.00;101081.00;5037688;28;20060;-79
2022/02/10 22:32:22;;;;;;;10.15;4.30;;;3.50;99.90;;;4.11;100.00;101073.13;5037153;28;20094;-78
2022/02/10 22:34:53;;;;;;;8.40;5.15;;;3.50;99.90;;;3.92;100.00;101059.34;5037374;28;20029;-77
2022/02/10 22:37:20;;;;;;;8.48;4.40;;;3.40;99.90;;;3.92;100.00;101053.84;5037323;28;20602;-78
2022/02/10 22:39:49;;;;;;;5.90;4.40;;;3.40;99.90;;;3.73;100.00;101030.97;5037544;28;20480;-79
2022/02/10 22:42:22;;;;;;;8.68;4.68;;;3.30;99.90;;;3.78;100.00;101033.66;5055995;28;20139;-78
2022/02/10 22:44:48;;;;;;;8.57;3.90;;;3.30;99.90;;;3.69;100.00;101022.47;5038286;28;20033;-77
2022/02/10 22:47:17;;;;;;;7.38;3.47;;;3.30;99.90;;;3.68;100.00;101018.09;5037355;28;20124;-78
2022/02/10 22:49:43;;;;;;;10.45;3.53;;;3.20;99.90;;;3.78;100.00;101022.59;5046363;28;20028;-78
2022/02/10 22:52:13;;;;;;;10.60;4.47;;;3.20;99.90;;;3.88;100.00;101035.41;5074171;28;20051;-79
2022/02/10 22:54:39;;;;;;;8.88;4.47;;;3.30;99.90;;;3.94;100.00;101032.25;5074476;28;20395;-80
2022/02/10 22:57:05;;;;;;;8.80;4.22;;;3.30;99.90;;;3.90;100.00;101024.88;5073944;28;20491;-78
2022/02/10 22:59:33;;;;;;;5.65;3.90;;;3.30;99.90;;;4.00;100.00;101033.78;5072278;28;20025;-78
2022/02/10 23:02:00;;;;;;;7.75;3.75;;;3.30;99.90;;;4.02;100.00;101028.78;5055610;28;20048;-77
2022/02/10 23:04:38;;;;;;;6.30;2.95;;;3.30;99.90;;;3.94;100.00;101026.72;5055989;28;20029;-77
2022/02/10 23:07:08;;;;;;;7.13;3.22;;;3.30;99.90;;;3.97;100.00;101031.66;5055889;28;20061;-77
2022/02/10 23:12:12;;;;;;;7.22;2.70;;;3.30;99.90;;;3.90;100.00;101036.75;5074350;28;20025;-80
2022/02/10 23:14:41;;;;;;;6.50;2.90;;;3.30;99.90;;;3.85;100.00;101030.50;5055721;28;20415;-79
2022/02/10 23:17:07;;;;;;;5.90;3.25;;;3.30;99.90;;;3.86;100.00;101040.41;5073943;28;20089;-80
2022/02/10 23:19:34;;;;;;;9.25;2.85;;;3.30;99.90;;;3.89;100.00;101043.38;5073214;28;20044;-77
2022/02/10 23:22:00;;;;;;;5.35;2.92;;;3.30;99.90;;;4.04;100.00;101047.84;5073673;28;20478;-79
2022/02/10 23:24:29;;;;;;;5.28;2.72;;;3.30;99.90;;;4.04;100.00;101056.13;5072157;28;20078;-78
2022/02/10 23:27:01;;;;;;;8.13;3.40;;;3.30;99.90;;;4.04;100.00;101045.06;5055421;28;20504;-79
2022/02/10 23:29:30;;;;;;;6.80;2.80;;;3.30;99.90;;;4.08;100.00;101044.13;5057230;28;20024;-77
2022/02/10 23:32:01;;;;;;;5.43;2.92;;;3.30;99.90;;;4.01;100.00;101034.63;5071871;28;20035;-78
2022/02/10 23:34:26;;;;;;;6.43;2.97;;;3.30;99.90;;;4.04;100.00;101045.88;5073482;28;20025;-78
2022/02/10 23:36:54;;;;;;;7.03;3.10;;;3.30;99.90;;;4.00;100.00;101052.31;5055420;28;20343;-78
2022/02/10 23:39:32;;;;;;;11.75;3.50;;;3.30;99.90;;;3.88;100.00;101046.47;5073219;28;20067;-79
2022/02/10 23:42:18;;;;;;;8.68;3.22;;;3.20;99.90;;;3.91;100.00;101045.84;5074246;28;20503;-80
2022/02/10 23:44:47;;;;;;;10.18;3.83;;;3.20;99.90;;;3.94;100.00;101056.31;5085502;28;20029;-81
2022/02/10 23:47:23;;;;;;;7.28;3.40;;;3.20;99.90;;;3.93;100.00;101051.88;5070929;28;20066;-81
2022/02/10 23:49:54;;;;;;;6.75;3.30;;;3.20;99.90;;;3.90;100.00;101061.63;5076575;28;20031;-80
2022/02/10 23:52:23;;;;;;;9.32;3.75;;;3.20;99.90;;;3.88;100.00;101055.59;5056175;28;20041;-79
2022/02/10 23:54:54;;;;;;;7.60;3.83;;;3.20;99.90;;;3.95;100.00;101052.44;5035341;28;20043;-79
2022/02/10 23:57:56;;;;;;;9.45;3.70;;;3.20;99.90;;;3.91;100.00;101052.22;5035043;28;20484;-78
